Time;durP1;ratioP1;P1;durP2;ratioP2;P2;SDS_P1;SDS_P2;PMS_P1;PMS_P2;Temp;Humidity;BMP_temperature;BMP_pressure;BME280_temperature;BME280_humidity;BME280_pressure;Samples;Min_cycle;Max_cycle;Signal;HPM_P1;HPM_P2
2023/07/16 00:01:30;;;;;;;13.57;10.83;;;;;;;;;;10415494;28;20061;-75
2023/07/16 00:06:31;;;;;;;15.87;10.87;;;;;;;;;;10409646;28;20302;-73
2023/07/16 00:11:31;;;;;;;12.98;11.00;;;;;;;;;;10407293;28;20060;-73
2023/07/16 00:16:32;;;;;;;14.15;10.63;;;;;;;;;;10407790;28;20065;-74
2023/07/16 00:21:32;;;;;;;14.90;10.33;;;;;;;;;;10415452;28;20029;-73
2023/07/16 00:26:35;;;;;;;15.13;10.27;;;;;;;;;;10380514;28;20311;-74
2023/07/16 00:31:35;;;;;;;11.02;9.65;;;;;;;;;;10409862;28;20344;-76
2023/07/16 00:36:35;;;;;;;13.93;10.67;;;;;;;;;;10394631;28;20041;-74
2023/07/16 00:41:36;;;;;;;12.23;10.10;;;;;;;;;;10415386;28;20372;-76
2023/07/16 00:46:36;;;;;;;13.00;10.17;;;;;;;;;;10410007;28;20796;-78
2023/07/16 00:51:37;;;;;;;13.25;10.82;;;;;;;;;;10414349;28;20531;-77
2023/07/16 00:56:37;;;;;;;11.43;9.65;;;;;;;;;;10407634;28;20107;-74
2023/07/16 01:01:39;;;;;;;13.23;10.43;;;;;;;;;;10407349;28;20041;-75
2023/07/16 01:06:40;;;;;;;14.90;11.00;;;;;;;;;;10416382;28;20052;-75
2023/07/16 01:11:42;;;;;;;8.67;6.97;;;;;;;;;;10407506;28;20496;-72
2023/07/16 01:16:42;;;;;;;6.75;6.03;;;;;;;;;;10399272;28;20838;-74
2023/07/16 01:22:02;;;;;;;8.45;5.78;;;;;;;;;;10421737;28;20033;-75
2023/07/16 01:27:03;;;;;;;8.25;5.50;;;;;;;;;;10411901;28;20029;-73
2023/07/16 01:32:04;;;;;;;7.40;5.03;;;;;;;;;;10380552;28;20057;-75
2023/07/16 01:37:06;;;;;;;6.65;4.80;;;;;;;;;;10413533;28;20607;-75
2023/07/16 01:42:06;;;;;;;6.75;5.00;;;;;;;;;;10408786;28;20114;-74
2023/07/16 01:47:07;;;;;;;9.30;4.75;;;;;;;;;;10398635;28;20037;-75
2023/07/16 01:52:08;;;;;;;6.28;4.60;;;;;;;;;;10402246;28;20516;-74
2023/07/16 01:57:09;;;;;;;6.87;4.57;;;;;;;;;;10407082;28;20044;-73
2023/07/16 02:02:09;;;;;;;7.05;4.82;;;;;;;;;;10377067;28;20037;-74
2023/07/16 02:07:09;;;;;;;5.17;4.67;;;;;;;;;;10405657;28;20173;-75
2023/07/16 02:12:12;;;;;;;7.00;5.23;;;;;;;;;;10407258;28;20079;-75
2023/07/16 02:17:13;;;;;;;7.53;5.68;;;;;;;;;;10409610;28;20029;-75
2023/07/16 02:22:13;;;;;;;6.83;5.17;;;;;;;;;;10416367;28;20091;-74
2023/07/16 02:27:13;;;;;;;6.67;5.17;;;;;;;;;;10411857;28;20041;-75
2023/07/16 02:32:14;;;;;;;6.18;5.03;;;;;;;;;;10415227;28;20053;-75
2023/07/16 02:37:14;;;;;;;5.57;5.00;;;;;;;;;;10410936;28;20154;-74
2023/07/16 02:42:14;;;;;;;8.83;5.17;;;;;;;;;;10413616;28;20447;-74
2023/07/16 02:47:15;;;;;;;8.97;5.67;;;;;;;;;;10408849;28;20397;-74
2023/07/16 02:52:16;;;;;;;6.35;5.13;;;;;;;;;;10389745;28;20505;-75
2023/07/16 02:57:16;;;;;;;7.67;5.53;;;;;;;;;;10416394;28;20108;-75
2023/07/16 03:02:17;;;;;;;6.95;4.53;;;;;;;;;;10417277;28;20041;-75
2023/07/16 03:07:17;;;;;;;7.00;4.77;;;;;;;;;;10421027;28;20033;-74
2023/07/16 03:12:18;;;;;;;6.40;4.80;;;;;;;;;;10401397;28;20046;-75
2023/07/16 03:17:18;;;;;;;5.87;4.40;;;;;;;;;;10421759;28;20035;-75
2023/07/16 03:22:18;;;;;;;6.37;4.97;;;;;;;;;;10417318;28;20045;-75
2023/07/16 03:27:19;;;;;;;6.70;4.53;;;;;;;;;;10400561;28;20037;-73
2023/07/16 03:32:22;;;;;;;6.22;4.32;;;;;;;;;;10400773;28;20353;-74
2023/07/16 03:37:22;;;;;;;4.47;3.93;;;;;;;;;;10420236;28;20044;-75
2023/07/16 03:42:23;;;;;;;6.27;4.03;;;;;;;;;;10391693;28;20382;-75
2023/07/16 03:47:24;;;;;;;3.80;3.40;;;;;;;;;;10391887;28;20990;-73
2023/07/16 03:52:26;;;;;;;4.47;3.23;;;;;;;;;;10383085;28;20037;-75
2023/07/16 03:57:29;;;;;;;3.45;2.40;;;;;;;;;;10402981;28;20057;-76
2023/07/16 04:02:32;;;;;;;4.47;2.80;;;;;;;;;;10416056;28;20413;-77
2023/07/16 04:07:33;;;;;;;3.40;2.65;;;;;;;;;;10416348;28;20072;-76
2023/07/16 04:12:33;;;;;;;3.50;2.33;;;;;;;;;;10416927;28;20064;-76
2023/07/16 04:17:33;;;;;;;2.33;1.87;;;;;;;;;;10416062;28;20336;-76
2023/07/16 04:22:34;;;;;;;3.00;2.10;;;;;;;;;;10420543;28;20042;-78
2023/07/16 04:27:35;;;;;;;2.97;2.03;;;;;;;;;;10424145;28;20659;-77
2023/07/16 04:32:36;;;;;;;3.03;1.90;;;;;;;;;;10416138;28;20043;-77
2023/07/16 04:37:36;;;;;;;2.42;1.92;;;;;;;;;;10420541;28;20374;-76
2023/07/16 04:42:37;;;;;;;2.83;2.30;;;;;;;;;;10414668;28;20052;-77
2023/07/16 04:47:37;;;;;;;2.65;1.85;;;;;;;;;;10411969;28;20029;-78
2023/07/16 04:52:37;;;;;;;4.93;1.83;;;;;;;;;;10411942;28;20045;-78
2023/07/16 04:57:38;;;;;;;4.03;2.08;;;;;;;;;;10415950;28;20114;-77
2023/07/16 05:02:38;;;;;;;2.50;2.10;;;;;;;;;;10415604;28;20033;-76
2023/07/16 05:07:38;;;;;;;3.67;2.00;;;;;;;;;;10419355;28;20784;-78
2023/07/16 05:12:39;;;;;;;2.53;2.00;;;;;;;;;;10397140;28;20063;-78
2023/07/16 05:17:39;;;;;;;3.57;2.10;;;;;;;;;;10414459;28;20028;-78
2023/07/16 05:22:40;;;;;;;4.93;2.75;;;;;;;;;;10414304;28;20644;-79
2023/07/16 05:27:40;;;;;;;5.40;1.90;;;;;;;;;;10418791;28;20132;-82
2023/07/16 05:32:40;;;;;;;2.30;1.80;;;;;;;;;;10416704;28;20404;-80
2023/07/16 05:37:43;;;;;;;3.80;2.50;;;;;;;;;;10415338;28;20128;-78
2023/07/16 05:42:43;;;;;;;;;;;;;;;;;;10414133;28;20037;-77
2023/07/16 05:47:46;;;;;;;4.97;2.03;;;;;;;;;;10407041;28;21039;-77
2023/07/16 05:52:48;;;;;;;4.97;2.80;;;;;;;;;;10386028;28;20056;-75
2023/07/16 05:57:48;;;;;;;7.67;2.50;;;;;;;;;;10413214;28;20033;-79
2023/07/16 06:02:48;;;;;;;6.17;2.43;;;;;;;;;;10407769;28;20079;-80
2023/07/16 06:07:49;;;;;;;4.33;2.27;;;;;;;;;;10410887;28;20036;-80
2023/07/16 06:12:49;;;;;;;5.10;2.70;;;;;;;;;;10414547;28;20041;-80
2023/07/16 06:17:49;;;;;;;4.97;2.30;;;;;;;;;;10411758;28;20454;-77
2023/07/16 06:22:50;;;;;;;3.83;2.13;;;;;;;;;;10409180;28;20287;-78
2023/07/16 06:27:50;;;;;;;8.37;5.47;;;;;;;;;;10418083;28;20469;-84
2023/07/16 06:32:50;;;;;;;5.27;2.50;;;;;;;;;;10427342;28;20312;-85
2023/07/16 06:37:51;;;;;;;5.10;2.47;;;;;;;;;;10427440;28;20295;-85
2023/07/16 06:42:51;;;;;;;5.27;2.33;;;;;;;;;;10424105;28;20041;-83
2023/07/16 06:47:51;;;;;;;3.33;2.07;;;;;;;;;;10423645;28;20033;-80
2023/07/16 06:52:52;;;;;;;6.33;3.07;;;;;;;;;;10428476;28;20123;-77
2023/07/16 06:57:52;;;;;;;3.87;2.23;;;;;;;;;;10460996;28;20029;-78
2023/07/16 07:02:52;;;;;;;5.33;2.20;;;;;;;;;;10491228;22;20037;-78
2023/07/16 07:07:53;;;;;;;4.53;2.60;;;;;;;;;;10590478;22;20037;-78
2023/07/16 07:12:53;;;;;;;12.60;8.93;;;;;;;;;;10365382;28;20127;-83
2023/07/16 07:17:54;;;;;;;5.13;3.10;;;;;;;;;;10365487;28;20442;-80
2023/07/16 07:22:54;;;;;;;3.92;2.35;;;;;;;;;;10351429;28;20038;-81
2023/07/16 07:27:54;;;;;;;5.25;2.80;;;;;;;;;;10359969;28;20038;-81
2023/07/16 07:32:55;;;;;;;5.13;2.43;;;;;;;;;;10354652;28;20096;-83
2023/07/16 07:37:55;;;;;;;5.20;2.30;;;;;;;;;;10363623;28;20313;-81
2023/07/16 07:42:55;;;;;;;4.23;3.00;;;;;;;;;;10326969;28;20053;-79
2023/07/16 07:47:56;;;;;;;5.63;2.87;;;;;;;;;;10327279;28;20129;-78
2023/07/16 07:52:57;;;;;;;4.72;2.85;;;;;;;;;;10348562;28;20058;-81
2023/07/16 07:57:58;;;;;;;4.32;2.67;;;;;;;;;;10340686;28;20038;-80
2023/07/16 08:02:58;;;;;;;7.87;4.33;;;;;;;;;;10352270;28;20080;-81
2023/07/16 08:07:59;;;;;;;6.85;2.97;;;;;;;;;;10372225;28;20149;-81
2023/07/16 08:12:59;;;;;;;5.60;3.53;;;;;;;;;;10370840;28;20077;-79
2023/07/16 08:17:59;;;;;;;7.13;3.00;;;;;;;;;;10350746;28;20038;-83
2023/07/16 08:23:00;;;;;;;4.28;2.53;;;;;;;;;;10354994;28;20042;-83
2023/07/16 08:28:02;;;;;;;7.07;2.70;;;;;;;;;;10365221;28;20041;-83
2023/07/16 08:33:02;;;;;;;5.13;2.78;;;;;;;;;;10383123;28;20313;-83
2023/07/16 08:38:03;;;;;;;4.30;3.23;;;;;;;;;;10372905;28;20026;-76
2023/07/16 08:43:05;;;;;;;4.55;2.78;;;;;;;;;;10348674;28;20029;-81
2023/07/16 08:48:06;;;;;;;5.53;3.30;;;;;;;;;;10378576;28;20073;-83
2023/07/16 08:53:06;;;;;;;5.60;2.70;;;;;;;;;;10343185;28;20085;-80
2023/07/16 08:58:07;;;;;;;6.03;3.47;;;;;;;;;;10354686;28;20054;-79
2023/07/16 09:03:07;;;;;;;5.50;2.83;;;;;;;;;;10372763;28;20030;-82
2023/07/16 09:08:07;;;;;;;8.03;3.07;;;;;;;;;;10355744;28;21067;-82
2023/07/16 09:13:08;;;;;;;4.75;2.70;;;;;;;;;;10317434;28;20301;-82
2023/07/16 09:18:10;;;;;;;5.55;2.80;;;;;;;;;;10352827;28;20038;-80
2023/07/16 09:23:10;;;;;;;7.83;3.00;;;;;;;;;;10362875;28;20033;-83
2023/07/16 09:28:12;;;;;;;7.00;2.73;;;;;;;;;;10341422;28;20022;-82
2023/07/16 09:33:16;;;;;;;8.90;5.65;;;;;;;;;;10332894;28;20078;-82
2023/07/16 09:38:17;;;;;;;7.68;6.45;;;;;;;;;;10349215;28;20037;-79
2023/07/16 09:43:17;;;;;;;5.65;2.80;;;;;;;;;;10347597;28;20133;-81
2023/07/16 09:48:18;;;;;;;4.25;2.70;;;;;;;;;;10359173;28;20121;-76
2023/07/16 09:53:19;;;;;;;6.70;2.50;;;;;;;;;;10349028;28;20208;-75
2023/07/16 09:58:20;;;;;;;14.93;8.25;;;;;;;;;;10337391;28;20284;-76
2023/07/16 10:03:20;;;;;;;4.05;2.75;;;;;;;;;;10338413;28;21198;-75
2023/07/16 10:08:21;;;;;;;2.27;1.83;;;;;;;;;;10338359;28;20128;-76
2023/07/16 10:13:22;;;;;;;4.15;2.55;;;;;;;;;;10337117;28;20498;-74
2023/07/16 10:18:33;;;;;;;4.37;2.60;;;;;;;;;;10348704;28;20127;-77
2023/07/16 10:23:41;;;;;;;5.53;2.20;;;;;;;;;;10348901;28;20117;-77
2023/07/16 10:28:41;;;;;;;5.13;2.30;;;;;;;;;;10340927;28;20390;-75
2023/07/16 10:33:41;;;;;;;3.63;2.40;;;;;;;;;;10340773;28;20084;-77
2023/07/16 10:38:42;;;;;;;7.23;2.63;;;;;;;;;;10351007;28;20093;-77
2023/07/16 10:43:42;;;;;;;4.93;2.13;;;;;;;;;;10339879;28;20038;-74
2023/07/16 10:48:47;;;;;;;2.90;1.90;;;;;;;;;;10342644;28;20045;-76
2023/07/16 10:53:47;;;;;;;5.32;2.10;;;;;;;;;;10347130;28;20058;-75
2023/07/16 10:58:48;;;;;;;10.17;6.50;;;;;;;;;;10336713;28;20585;-78
2023/07/16 11:03:48;;;;;;;3.22;2.05;;;;;;;;;;10351101;28;20040;-73
2023/07/16 11:08:49;;;;;;;5.03;2.30;;;;;;;;;;10335534;28;20037;-75
2023/07/16 11:13:49;;;;;;;6.30;2.17;;;;;;;;;;10350583;28;20056;-73
2023/07/16 11:18:50;;;;;;;4.10;1.87;;;;;;;;;;10340466;28;20034;-75
2023/07/16 11:23:50;;;;;;;4.30;2.10;;;;;;;;;;10335542;28;20036;-74
2023/07/16 11:28:51;;;;;;;4.13;2.43;;;;;;;;;;10341260;28;20034;-74
2023/07/16 11:33:52;;;;;;;5.93;2.28;;;;;;;;;;10351251;28;20073;-73
2023/07/16 11:38:52;;;;;;;3.53;2.00;;;;;;;;;;10335460;28;20112;-72
2023/07/16 11:43:52;;;;;;;5.57;2.10;;;;;;;;;;10343717;28;20423;-72
2023/07/16 11:48:53;;;;;;;4.70;2.17;;;;;;;;;;10340694;28;20141;-71
2023/07/16 11:53:55;;;;;;;3.03;2.23;;;;;;;;;;10346156;28;20161;-72
2023/07/16 11:58:55;;;;;;;;;;;;;;;;;;10342877;28;20888;-72
2023/07/16 12:03:55;;;;;;;2.90;1.75;;;;;;;;;;10336226;28;19925;-73
2023/07/16 12:08:56;;;;;;;5.37;2.13;;;;;;;;;;10337841;28;20583;-72
2023/07/16 12:13:56;;;;;;;4.03;1.90;;;;;;;;;;10345075;28;20050;-72
2023/07/16 12:18:56;;;;;;;3.30;1.80;;;;;;;;;;10346492;28;20486;-71
2023/07/16 12:23:57;;;;;;;2.27;1.60;;;;;;;;;;10325324;28;20120;-72
2023/07/16 12:28:57;;;;;;;5.25;2.15;;;;;;;;;;10349070;28;20037;-72
2023/07/16 12:33:58;;;;;;;4.93;2.67;;;;;;;;;;10348597;28;20053;-71
2023/07/16 12:38:58;;;;;;;3.58;2.00;;;;;;;;;;10340983;28;20300;-71
2023/07/16 12:43:58;;;;;;;3.27;2.00;;;;;;;;;;10341303;28;20034;-71
2023/07/16 12:48:59;;;;;;;3.10;1.80;;;;;;;;;;10339828;28;20368;-71
2023/07/16 12:54:00;;;;;;;4.03;2.57;;;;;;;;;;10334967;28;20501;-71
2023/07/16 12:59:01;;;;;;;2.80;2.00;;;;;;;;;;10337627;28;20773;-71
2023/07/16 13:04:01;;;;;;;4.50;2.30;;;;;;;;;;10337149;28;20034;-73
2023/07/16 13:09:01;;;;;;;5.03;1.97;;;;;;;;;;10335831;28;20062;-70
2023/07/16 13:14:01;;;;;;;4.60;2.50;;;;;;;;;;10335108;28;20053;-74
2023/07/16 13:19:02;;;;;;;2.93;1.80;;;;;;;;;;10339456;28;20033;-74
2023/07/16 13:24:02;;;;;;;5.53;3.10;;;;;;;;;;10331762;28;20065;-76
2023/07/16 13:29:03;;;;;;;3.40;2.20;;;;;;;;;;10343273;28;20489;-74
2023/07/16 13:34:03;;;;;;;3.20;1.90;;;;;;;;;;10350058;28;20521;-73
2023/07/16 13:39:04;;;;;;;2.00;1.53;;;;;;;;;;10339026;28;20646;-73
2023/07/16 13:44:05;;;;;;;3.53;2.47;;;;;;;;;;10337159;28;20368;-73
2023/07/16 13:49:05;;;;;;;5.03;2.30;;;;;;;;;;10340634;28;20030;-75
2023/07/16 13:54:05;;;;;;;4.37;2.37;;;;;;;;;;10335765;28;20038;-73
2023/07/16 13:59:06;;;;;;;3.43;2.10;;;;;;;;;;10356234;28;20042;-73
2023/07/16 14:04:06;;;;;;;4.93;2.50;;;;;;;;;;10342657;28;20042;-72
2023/07/16 14:09:07;;;;;;;3.77;1.80;;;;;;;;;;10338808;28;20046;-75
2023/07/16 14:14:07;;;;;;;3.27;1.90;;;;;;;;;;10342946;28;20132;-80
2023/07/16 14:19:07;;;;;;;3.90;2.03;;;;;;;;;;10342957;28;20933;-75
2023/07/16 14:24:08;;;;;;;3.63;1.98;;;;;;;;;;10335997;28;20057;-75
2023/07/16 14:29:11;;;;;;;3.13;2.00;;;;;;;;;;10335027;28;20030;-75
2023/07/16 14:34:11;;;;;;;5.40;2.10;;;;;;;;;;10339896;28;20052;-79
2023/07/16 14:39:11;;;;;;;4.13;1.70;;;;;;;;;;10329094;28;20693;-76
2023/07/16 14:44:12;;;;;;;4.47;1.80;;;;;;;;;;10335432;28;20077;-76
2023/07/16 14:49:12;;;;;;;2.47;1.80;;;;;;;;;;10338241;28;20857;-76
2023/07/16 14:54:12;;;;;;;6.40;2.67;;;;;;;;;;10330709;28;20077;-74
2023/07/16 14:59:13;;;;;;;4.13;1.97;;;;;;;;;;10336912;28;20045;-76
2023/07/16 15:04:13;;;;;;;4.57;2.13;;;;;;;;;;10334303;28;20044;-75
2023/07/16 15:09:14;;;;;;;3.23;1.80;;;;;;;;;;10334403;28;20139;-75
2023/07/16 15:14:14;;;;;;;3.73;1.90;;;;;;;;;;10346297;28;20042;-75
2023/07/16 15:19:16;;;;;;;5.33;2.30;;;;;;;;;;10345653;28;20041;-76
2023/07/16 15:24:17;;;;;;;3.00;2.10;;;;;;;;;;10336529;28;20030;-74
2023/07/16 15:29:17;;;;;;;4.37;1.77;;;;;;;;;;10343067;28;20413;-75
2023/07/16 15:34:17;;;;;;;2.93;2.03;;;;;;;;;;10309159;28;20157;-77
2023/07/16 15:39:18;;;;;;;3.57;2.17;;;;;;;;;;10327888;28;20122;-77
2023/07/16 15:44:19;;;;;;;2.83;2.03;;;;;;;;;;10336084;28;20042;-75
2023/07/16 15:49:19;;;;;;;3.23;2.23;;;;;;;;;;10312902;28;20037;-75
2023/07/16 15:54:20;;;;;;;3.13;2.10;;;;;;;;;;10342315;28;20050;-76
2023/07/16 15:59:20;;;;;;;3.90;2.00;;;;;;;;;;10347319;28;20042;-77
2023/07/16 16:04:21;;;;;;;4.13;2.17;;;;;;;;;;10347622;28;20446;-76
2023/07/16 16:09:21;;;;;;;4.90;2.53;;;;;;;;;;10344831;28;20088;-76
2023/07/16 16:14:22;;;;;;;2.67;1.90;;;;;;;;;;10348435;28;20042;-77
2023/07/16 16:19:26;;;;;;;3.33;2.10;;;;;;;;;;10323993;28;20041;-77
2023/07/16 16:24:26;;;;;;;4.53;1.90;;;;;;;;;;10341959;28;20098;-77
2023/07/16 16:29:27;;;;;;;3.73;2.03;;;;;;;;;;10343548;28;21000;-76
2023/07/16 16:34:28;;;;;;;3.30;2.37;;;;;;;;;;10331041;28;20077;-76
2023/07/16 16:39:28;;;;;;;7.73;2.37;;;;;;;;;;10336281;28;20038;-77
2023/07/16 16:44:28;;;;;;;3.93;2.00;;;;;;;;;;10333939;28;20297;-76
2023/07/16 16:49:29;;;;;;;2.40;1.77;;;;;;;;;;10343268;28;20042;-76
2023/07/16 16:54:29;;;;;;;3.03;2.17;;;;;;;;;;10350399;28;20056;-78
2023/07/16 16:59:32;;;;;;;4.03;2.13;;;;;;;;;;10331714;28;20056;-76
2023/07/16 17:04:34;;;;;;;3.35;2.20;;;;;;;;;;10333758;28;20050;-76
2023/07/16 17:09:35;;;;;;;4.43;2.20;;;;;;;;;;10335993;28;20027;-78
2023/07/16 17:14:36;;;;;;;2.10;1.85;;;;;;;;;;10324871;28;20775;-77
2023/07/16 17:19:36;;;;;;;4.63;2.57;;;;;;;;;;10335984;28;20040;-80
2023/07/16 17:24:37;;;;;;;4.37;2.00;;;;;;;;;;10317806;28;20038;-79
2023/07/16 17:29:37;;;;;;;4.77;2.37;;;;;;;;;;10343100;28;20061;-77
2023/07/16 17:34:39;;;;;;;2.90;2.07;;;;;;;;;;10322611;28;20049;-78
2023/07/16 17:39:40;;;;;;;2.20;2.00;;;;;;;;;;10333707;28;20042;-76
2023/07/16 17:44:46;;;;;;;2.83;2.20;;;;;;;;;;10336038;28;20112;-78
2023/07/16 17:49:47;;;;;;;2.72;2.00;;;;;;;;;;10327881;28;20042;-78
2023/07/16 17:54:47;;;;;;;3.20;2.28;;;;;;;;;;10326068;28;20545;-78
2023/07/16 17:59:47;;;;;;;3.90;2.33;;;;;;;;;;10338447;28;20696;-78
2023/07/16 18:04:52;;;;;;;3.10;2.33;;;;;;;;;;10349511;28;20060;-76
2023/07/16 18:09:53;;;;;;;3.00;2.10;;;;;;;;;;10349465;28;20120;-77
2023/07/16 18:14:54;;;;;;;5.03;3.20;;;;;;;;;;10349975;28;20084;-76
2023/07/16 18:19:55;;;;;;;4.57;2.77;;;;;;;;;;10344220;28;20042;-77
2023/07/16 18:24:55;;;;;;;3.50;2.87;;;;;;;;;;10341315;28;20053;-78
2023/07/16 18:29:58;;;;;;;4.03;2.67;;;;;;;;;;10331875;28;20046;-78
2023/07/16 18:34:58;;;;;;;4.78;2.88;;;;;;;;;;10340179;28;20429;-78
2023/07/16 18:39:59;;;;;;;3.90;2.50;;;;;;;;;;10341801;28;20030;-76
2023/07/16 18:45:02;;;;;;;2.70;2.30;;;;;;;;;;10336037;28;20560;-77
2023/07/16 18:50:03;;;;;;;4.53;3.00;;;;;;;;;;10336932;28;20046;-77
2023/07/16 18:55:04;;;;;;;3.45;2.42;;;;;;;;;;10340441;28;20042;-79
2023/07/16 19:00:06;;;;;;;4.40;2.78;;;;;;;;;;10343844;28;20034;-78
2023/07/16 19:05:07;;;;;;;3.60;2.47;;;;;;;;;;10345217;28;20053;-78
2023/07/16 19:10:07;;;;;;;4.05;2.80;;;;;;;;;;10347961;28;20465;-77
2023/07/16 19:15:08;;;;;;;5.18;3.15;;;;;;;;;;10348426;28;20049;-75
2023/07/16 19:20:09;;;;;;;4.40;2.50;;;;;;;;;;10335746;28;20141;-73
2023/07/16 19:25:09;;;;;;;3.22;2.70;;;;;;;;;;10325623;28;20042;-75
2023/07/16 19:30:10;;;;;;;4.03;2.70;;;;;;;;;;10338439;28;20486;-74
2023/07/16 19:35:11;;;;;;;3.53;2.78;;;;;;;;;;10322561;28;20321;-73
2023/07/16 19:40:12;;;;;;;3.20;2.80;;;;;;;;;;10341567;28;20053;-74
2023/07/16 19:45:12;;;;;;;4.05;2.70;;;;;;;;;;10329669;28;20070;-74
2023/07/16 19:50:12;;;;;;;5.33;2.70;;;;;;;;;;10344985;28;20040;-73
2023/07/16 19:55:13;;;;;;;3.90;2.53;;;;;;;;;;10337678;28;20317;-75
2023/07/16 20:00:13;;;;;;;3.50;3.10;;;;;;;;;;10341620;28;20509;-74
2023/07/16 20:05:16;;;;;;;3.35;2.60;;;;;;;;;;10334222;28;20073;-76
2023/07/16 20:10:17;;;;;;;5.05;3.10;;;;;;;;;;10345435;28;20049;-76
2023/07/16 20:15:17;;;;;;;5.77;3.00;;;;;;;;;;10342989;28;20042;-75
2023/07/16 20:20:17;;;;;;;4.00;3.10;;;;;;;;;;10334029;28;20034;-75
2023/07/16 20:25:18;;;;;;;3.63;3.17;;;;;;;;;;10344798;28;20041;-76
2023/07/16 20:30:19;;;;;;;3.80;3.10;;;;;;;;;;10345446;28;20363;-75
2023/07/16 20:35:20;;;;;;;6.18;4.10;;;;;;;;;;10340275;28;20128;-75
2023/07/16 20:40:20;;;;;;;3.93;3.53;;;;;;;;;;10325011;28;20037;-74
2023/07/16 20:45:21;;;;;;;4.53;3.50;;;;;;;;;;10335546;28;20120;-75
2023/07/16 20:50:24;;;;;;;4.70;3.33;;;;;;;;;;10340251;28;20313;-76
2023/07/16 20:55:25;;;;;;;5.55;3.92;;;;;;;;;;10335978;28;20596;-76
2023/07/16 21:00:29;;;;;;;5.22;3.60;;;;;;;;;;10337674;28;20034;-74
2023/07/16 21:05:30;;;;;;;6.10;3.97;;;;;;;;;;10344985;28;20790;-75
2023/07/16 21:10:31;;;;;;;4.47;3.90;;;;;;;;;;10344580;28;20041;-75
2023/07/16 21:15:32;;;;;;;5.73;4.50;;;;;;;;;;10339834;28;20057;-74
2023/07/16 21:20:39;;;;;;;6.68;3.97;;;;;;;;;;10317069;28;20033;-77
2023/07/16 21:25:43;;;;;;;4.57;3.60;;;;;;;;;;10336910;28;20681;-76
2023/07/16 21:30:43;;;;;;;6.63;3.58;;;;;;;;;;10332062;28;20141;-75
2023/07/16 21:35:44;;;;;;;4.33;3.30;;;;;;;;;;10335060;28;20073;-74
2023/07/16 21:40:44;;;;;;;5.67;3.47;;;;;;;;;;10340864;28;20321;-75
2023/07/16 21:45:44;;;;;;;5.90;3.33;;;;;;;;;;10331759;28;20498;-75
2023/07/16 21:50:45;;;;;;;4.83;3.27;;;;;;;;;;10329033;28;20034;-75
2023/07/16 21:55:45;;;;;;;5.32;3.80;;;;;;;;;;10319458;28;20072;-77
2023/07/16 22:00:47;;;;;;;5.25;3.58;;;;;;;;;;10330048;28;20042;-77
2023/07/16 22:05:47;;;;;;;5.70;3.70;;;;;;;;;;10330545;28;20177;-74
2023/07/16 22:10:47;;;;;;;4.93;3.60;;;;;;;;;;10347645;28;20033;-75
2023/07/16 22:15:48;;;;;;;5.00;3.90;;;;;;;;;;10339350;28;20495;-75
2023/07/16 22:20:48;;;;;;;4.87;3.40;;;;;;;;;;10354456;28;21180;-77
2023/07/16 22:25:48;;;;;;;4.17;3.60;;;;;;;;;;10324537;28;20549;-76
2023/07/16 22:30:49;;;;;;;7.20;3.97;;;;;;;;;;10352541;28;20041;-74
2023/07/16 22:35:49;;;;;;;4.80;3.60;;;;;;;;;;10358859;28;20056;-74
2023/07/16 22:40:49;;;;;;;5.53;3.53;;;;;;;;;;10360478;28;20034;-74
2023/07/16 22:45:50;;;;;;;4.77;3.57;;;;;;;;;;10353873;28;20044;-76
2023/07/16 22:50:50;;;;;;;5.83;3.80;;;;;;;;;;10348041;28;20335;-76
2023/07/16 22:55:50;;;;;;;4.85;3.55;;;;;;;;;;10345586;28;20048;-75
2023/07/16 23:00:51;;;;;;;6.40;3.90;;;;;;;;;;10331862;28;20030;-75
2023/07/16 23:05:51;;;;;;;7.05;3.63;;;;;;;;;;10349990;28;20046;-76
2023/07/16 23:10:51;;;;;;;7.50;4.80;;;;;;;;;;10340841;28;20041;-76
2023/07/16 23:15:52;;;;;;;7.70;4.50;;;;;;;;;;10344913;28;20045;-74
2023/07/16 23:20:53;;;;;;;6.60;4.50;;;;;;;;;;10341635;28;20041;-74
2023/07/16 23:25:53;;;;;;;6.05;4.55;;;;;;;;;;10337152;28;20033;-74
2023/07/16 23:30:54;;;;;;;6.87;4.63;;;;;;;;;;10338835;28;20044;-75
2023/07/16 23:35:54;;;;;;;5.63;4.90;;;;;;;;;;10316537;28;20116;-75
2023/07/16 23:40:55;;;;;;;5.10;4.60;;;;;;;;;;10334025;28;20725;-75
2023/07/16 23:45:55;;;;;;;4.80;4.17;;;;;;;;;;10341089;28;20065;-73
2023/07/16 23:50:56;;;;;;;6.00;4.97;;;;;;;;;;10339793;28;20639;-75
2023/07/16 23:55:57;;;;;;;5.50;4.25;;;;;;;;;;10341972;28;20054;-75
